createdAt,value
2022-08-22T00:00:17.951Z,98529.96
2022-08-22T00:02:21.630Z,98528.47
2022-08-22T00:02:55.559Z,98570.72
2022-08-22T00:02:57.845Z,98553.69
2022-08-22T00:03:02.739Z,98830.14
2022-08-22T00:03:08.632Z,98648.92
2022-08-22T00:03:11.930Z,98612.31
2022-08-22T00:03:50.577Z,98533.21
2022-08-22T00:05:27.449Z,98536.09
2022-08-22T00:06:53.536Z,98537.17
2022-08-22T00:08:38.044Z,98537.68
2022-08-22T00:10:25.286Z,98536.09
2022-08-22T00:11:51.339Z,98529.91
2022-08-22T00:13:06.008Z,98530.98
2022-08-22T00:14:42.326Z,98531.52
2022-08-22T00:16:13.809Z,98531.84
2022-08-22T00:17:51.144Z,98527.73
2022-08-22T00:19:25.364Z,98531.52
2022-08-22T00:20:39.309Z,98527.54
2022-08-22T00:22:07.227Z,98526.40
2022-08-22T00:23:36.817Z,98526.95
2022-08-22T00:25:25.728Z,98526.92
2022-08-22T00:26:45.445Z,98529.33
2022-08-22T00:28:01.515Z,98535.02
2022-08-22T00:29:18.602Z,98533.93
2022-08-22T00:30:27.030Z,98532.38
2022-08-22T00:31:52.187Z,98533.70
2022-08-22T00:33:11.918Z,98536.54
2022-08-22T00:34:39.351Z,98536.98
2022-08-22T00:36:00.008Z,98534.39
2022-08-22T00:37:18.498Z,98538.31
2022-08-22T00:38:35.755Z,98536.17
2022-08-22T00:39:49.625Z,98532.91
2022-08-22T00:41:04.102Z,98538.11
2022-08-22T00:43:05.481Z,98536.96
2022-08-22T00:44:40.754Z,98536.20
2022-08-22T00:46:14.155Z,98536.23
2022-08-22T00:47:38.043Z,98533.73
2022-08-22T00:49:14.822Z,98531.59
2022-08-22T00:51:00.761Z,98530.64
2022-08-22T00:52:31.944Z,98528.41
2022-08-22T00:53:56.254Z,98532.72
2022-08-22T00:55:34.870Z,98528.48
2022-08-22T00:57:06.582Z,98531.80
2022-08-22T00:58:30.336Z,98530.33
2022-08-22T00:59:41.861Z,98533.81
2022-08-22T01:00:58.022Z,98535.63
2022-08-22T01:02:08.998Z,98534.32
2022-08-22T01:03:48.770Z,98535.17
2022-08-22T01:05:05.264Z,98532.25
2022-08-22T01:06:24.571Z,98530.55
2022-08-22T01:08:03.284Z,98536.25
2022-08-22T01:09:33.727Z,98536.88
2022-08-22T01:11:25.496Z,98532.80
2022-08-22T01:12:45.257Z,98534.59
2022-08-22T01:14:14.691Z,98534.20
2022-08-22T01:15:26.747Z,98530.21
2022-08-22T01:17:02.261Z,98530.69
2022-08-22T01:18:39.487Z,98530.52
2022-08-22T01:20:12.135Z,98529.64
2022-08-22T01:21:33.501Z,98533.77
2022-08-22T01:22:59.019Z,98527.59
2022-08-22T01:25:04.574Z,98529.47
2022-08-22T01:26:16.181Z,98528.30
2022-08-22T01:27:52.594Z,98523.32
2022-08-22T01:29:10.434Z,98526.48
2022-08-22T01:30:45.294Z,98529.51
2022-08-22T01:32:32.619Z,98530.40
2022-08-22T01:34:02.246Z,98529.35
2022-08-22T01:35:38.305Z,98530.39
2022-08-22T01:37:20.347Z,98532.00
2022-08-22T01:38:53.375Z,98532.38
2022-08-22T01:40:29.005Z,98533.54
2022-08-22T01:42:16.833Z,98535.44
2022-08-22T01:44:00.748Z,98535.34
2022-08-22T01:45:24.908Z,98538.61
2022-08-22T01:46:52.005Z,98536.42
2022-08-22T01:48:33.747Z,98538.98
2022-08-22T01:49:56.744Z,98540.55
2022-08-22T01:51:27.298Z,98546.66
2022-08-22T01:52:47.214Z,98548.44
2022-08-22T01:54:36.432Z,98553.13
2022-08-22T01:56:18.772Z,98555.17
2022-08-22T01:57:29.654Z,98560.96
2022-08-22T01:58:39.733Z,98562.94
2022-08-22T01:59:52.663Z,98568.80
2022-08-22T02:01:26.418Z,98568.90
2022-08-22T02:02:48.605Z,98567.13
2022-08-22T02:04:02.470Z,98569.94
2022-08-22T02:05:40.523Z,98572.17
2022-08-22T02:07:38.185Z,98573.10
2022-08-22T02:09:18.092Z,98572.58
2022-08-22T02:10:49.869Z,98577.61
2022-08-22T02:12:39.568Z,98577.06
2022-08-22T02:13:57.130Z,98579.79
2022-08-22T02:15:29.350Z,98584.30
2022-08-22T02:16:49.928Z,98581.30
2022-08-22T02:19:06.744Z,98585.61
2022-08-22T02:20:34.362Z,98584.84
2022-08-22T02:22:19.294Z,98583.27
2022-08-22T02:23:55.969Z,98590.99
2022-08-22T02:25:11.773Z,98591.73
2022-08-22T02:26:52.001Z,98591.30
2022-08-22T02:28:16.322Z,98596.02
2022-08-22T02:29:47.646Z,98602.69
2022-08-22T02:31:08.182Z,98604.91
2022-08-22T02:33:01.125Z,98606.84
2022-08-22T02:34:46.067Z,98607.12
2022-08-22T02:36:21.065Z,98616.46
2022-08-22T02:37:44.217Z,98618.50
2022-08-22T02:39:05.220Z,98617.85
2022-08-22T02:40:43.823Z,98621.07
2022-08-22T02:42:04.716Z,98622.11
2022-08-22T02:43:20.309Z,98624.00
2022-08-22T02:44:37.216Z,98622.61
2022-08-22T02:46:17.182Z,98623.80
2022-08-22T02:47:30.935Z,98626.30
2022-08-22T02:48:42.141Z,98629.58
2022-08-22T02:50:12.848Z,98630.13
2022-08-22T02:51:59.814Z,98629.59
2022-08-22T02:53:13.516Z,98634.66
2022-08-22T02:54:31.524Z,98637.30
2022-08-22T02:56:11.656Z,98640.75
2022-08-22T02:57:39.708Z,98643.13
2022-08-22T02:59:29.556Z,98641.89
2022-08-22T03:01:18.881Z,98643.52
2022-08-22T03:02:37.986Z,98642.05
2022-08-22T03:03:50.193Z,98648.02
2022-08-22T03:05:05.163Z,98645.98
2022-08-22T03:07:00.722Z,98644.66
2022-08-22T03:08:21.087Z,98654.50
2022-08-22T03:10:03.228Z,98660.95
2022-08-22T03:11:23.811Z,98660.81
2022-08-22T03:12:43.096Z,98666.91
2022-08-22T03:14:23.290Z,98669.42
2022-08-22T03:15:32.317Z,98666.07
2022-08-22T03:17:02.106Z,98665.77
2022-08-22T03:18:51.132Z,98660.54
2022-08-22T03:20:52.459Z,98659.83
2022-08-22T03:22:05.463Z,98660.64
2022-08-22T03:24:09.580Z,98664.69
2022-08-22T03:25:29.411Z,98669.85
2022-08-22T03:27:01.332Z,98669.79
2022-08-22T03:28:18.103Z,98672.33
2022-08-22T03:29:38.738Z,98675.42
2022-08-22T03:31:13.359Z,98670.98
2022-08-22T03:32:23.069Z,98675.34
2022-08-22T03:33:33.533Z,98677.45
2022-08-22T03:34:56.650Z,98678.98
2022-08-22T03:36:28.941Z,98680.41
2022-08-22T03:37:45.172Z,98682.06
2022-08-22T03:39:21.225Z,98681.86
2022-08-22T03:40:44.760Z,98681.98
2022-08-22T03:42:11.793Z,98685.27
2022-08-22T03:43:57.611Z,98687.29
2022-08-22T03:45:24.953Z,98692.23
2022-08-22T03:47:10.651Z,98691.55
2022-08-22T03:48:40.575Z,98693.02
2022-08-22T03:50:07.048Z,98691.31
2022-08-22T03:51:33.782Z,98691.03
2022-08-22T03:53:18.869Z,98692.30
2022-08-22T03:54:59.733Z,98692.18
2022-08-22T03:56:45.442Z,98690.20
2022-08-22T03:58:31.924Z,98692.35
2022-08-22T04:00:15.314Z,98696.98
2022-08-22T04:02:00.875Z,98701.17
2022-08-22T04:03:27.973Z,98699.73
2022-08-22T04:05:14.142Z,98708.46
2022-08-22T04:07:00.379Z,98713.17
2022-08-22T04:08:48.051Z,98716.64
2022-08-22T04:10:33.550Z,98718.92
2022-08-22T04:12:03.138Z,98719.82
2022-08-22T04:13:24.645Z,98721.86
2022-08-22T04:14:46.927Z,98720.16
2022-08-22T04:16:27.904Z,98718.59
2022-08-22T04:17:46.696Z,98719.80
2022-08-22T04:19:13.763Z,98722.30
2022-08-22T04:20:42.740Z,98725.55
2022-08-22T04:22:41.961Z,98728.46
2022-08-22T04:24:03.312Z,98725.42
2022-08-22T04:25:18.362Z,98728.33
2022-08-22T04:26:38.008Z,98732.40
2022-08-22T04:27:57.719Z,98735.27
2022-08-22T04:29:11.100Z,98737.60
2022-08-22T04:30:28.939Z,98738.46
2022-08-22T04:31:48.225Z,98734.91
2022-08-22T04:33:21.374Z,98741.30
2022-08-22T04:34:42.793Z,98738.83
2022-08-22T04:36:30.312Z,98736.81
2022-08-22T04:38:01.436Z,98742.11
2022-08-22T04:39:37.317Z,98747.79
2022-08-22T04:41:01.409Z,98752.02
2022-08-22T04:42:49.357Z,98751.23
2022-08-22T04:44:17.188Z,98751.50
2022-08-22T04:45:37.668Z,98753.63
2022-08-22T04:46:58.463Z,98750.84
2022-08-22T04:48:24.138Z,98752.55
2022-08-22T04:49:43.060Z,98751.90
2022-08-22T04:50:52.812Z,98754.48
2022-08-22T04:52:29.418Z,98752.61
2022-08-22T04:53:41.265Z,98754.52
2022-08-22T04:55:19.944Z,98754.86
2022-08-22T04:56:50.604Z,98753.67
2022-08-22T04:58:33.210Z,98751.81
2022-08-22T04:59:42.163Z,98751.88
2022-08-22T05:01:11.755Z,98753.21
2022-08-22T05:02:29.381Z,98753.17
2022-08-22T05:03:46.048Z,98748.16
2022-08-22T05:05:34.318Z,98750.33
2022-08-22T05:06:47.992Z,98752.20
2022-08-22T05:08:01.177Z,98752.79
2022-08-22T05:09:17.110Z,98756.60
2022-08-22T05:10:34.434Z,98757.45
2022-08-22T05:11:42.007Z,98763.46
2022-08-22T05:13:20.182Z,98763.08
2022-08-22T05:14:32.057Z,98768.48
2022-08-22T05:15:42.411Z,98767.81
2022-08-22T05:16:52.295Z,98765.10
2022-08-22T05:18:04.346Z,98764.78
2022-08-22T05:19:16.939Z,98761.59
2022-08-22T05:20:29.744Z,98763.48
2022-08-22T05:21:39.375Z,98760.98
2022-08-22T05:22:48.824Z,98760.39
2022-08-22T05:24:09.839Z,98760.73
2022-08-22T05:25:27.598Z,98762.70
2022-08-22T05:26:44.854Z,98763.52
2022-08-22T05:27:56.467Z,98765.41
2022-08-22T05:29:09.315Z,98766.13
2022-08-22T05:30:22.504Z,98767.54
2022-08-22T05:31:32.635Z,98771.02
2022-08-22T05:33:10.499Z,98767.98
2022-08-22T05:34:21.834Z,98768.15
2022-08-22T05:35:47.190Z,98769.95
2022-08-22T05:37:03.543Z,98771.19
2022-08-22T05:38:19.312Z,98769.44
2022-08-22T05:39:28.306Z,98771.67
2022-08-22T05:40:37.702Z,98773.80
2022-08-22T05:41:46.115Z,98775.25
2022-08-22T05:42:55.120Z,98778.41
2022-08-22T05:44:06.023Z,98780.23
2022-08-22T05:45:13.479Z,98780.25
2022-08-22T05:46:38.595Z,98784.64
2022-08-22T05:47:49.103Z,98782.43
2022-08-22T05:49:01.504Z,98781.11
2022-08-22T05:50:21.368Z,98779.01
2022-08-22T05:51:53.751Z,98780.27
2022-08-22T05:53:36.928Z,98777.19
2022-08-22T05:55:00.502Z,98772.98
2022-08-22T05:56:20.788Z,98771.52
2022-08-22T05:57:33.969Z,98772.41
2022-08-22T05:58:57.146Z,98769.39
2022-08-22T06:00:24.170Z,98771.40
2022-08-22T06:02:02.628Z,98774.92
2022-08-22T06:03:17.581Z,98776.27
2022-08-22T06:05:00.570Z,98776.00
2022-08-22T06:06:17.437Z,98771.98
2022-08-22T06:07:44.418Z,98773.31
2022-08-22T06:09:36.659Z,98771.30
2022-08-22T06:10:56.964Z,98773.08
2022-08-22T06:12:26.266Z,98769.75
2022-08-22T06:13:44.710Z,98770.14
2022-08-22T06:15:21.084Z,98773.88
2022-08-22T06:16:39.586Z,98777.53
2022-08-22T06:18:08.548Z,98777.89
2022-08-22T06:19:19.350Z,98775.45
2022-08-22T06:20:35.021Z,98776.27
2022-08-22T06:21:44.470Z,98772.26
2022-08-22T06:22:55.120Z,98772.46
2022-08-22T06:24:06.378Z,98770.18
2022-08-22T06:25:19.047Z,98769.37
2022-08-22T06:26:32.310Z,98772.30
2022-08-22T06:27:41.346Z,98769.48
2022-08-22T06:28:55.437Z,98771.42
2022-08-22T06:30:05.239Z,98773.64
2022-08-22T06:31:24.936Z,98769.94
2022-08-22T06:32:58.764Z,98770.44
2022-08-22T06:34:24.408Z,98768.24
2022-08-22T06:36:01.439Z,98768.81
2022-08-22T06:37:12.131Z,98768.85
2022-08-22T06:38:20.723Z,98769.66
2022-08-22T06:39:36.267Z,98766.69
2022-08-22T06:40:44.821Z,98763.04
2022-08-22T06:42:14.519Z,98766.60
2022-08-22T06:43:37.769Z,98770.09
2022-08-22T06:44:52.480Z,98772.77
2022-08-22T06:46:00.917Z,98772.42
2022-08-22T06:47:09.758Z,98776.64
2022-08-22T06:48:21.297Z,98777.17
2022-08-22T06:49:31.151Z,98777.04
2022-08-22T06:50:43.106Z,98777.07
2022-08-22T06:51:51.488Z,98777.76
2022-08-22T06:53:10.118Z,98778.54
2022-08-22T06:54:22.858Z,98777.35
2022-08-22T06:55:31.094Z,98773.61
2022-08-22T06:56:43.993Z,98772.48
2022-08-22T06:58:04.957Z,98771.55
2022-08-22T06:59:18.124Z,98772.20
2022-08-22T07:00:26.153Z,98768.55
2022-08-22T07:01:37.540Z,98766.03
2022-08-22T07:02:48.045Z,98763.77
2022-08-22T07:04:00.577Z,98764.82
2022-08-22T07:05:11.092Z,98763.69
2022-08-22T07:06:30.289Z,98762.99
2022-08-22T07:07:40.333Z,98766.15
2022-08-22T07:08:47.849Z,98768.36
2022-08-22T07:09:57.687Z,98772.05
2022-08-22T07:11:41.025Z,98775.54
2022-08-22T07:12:51.025Z,98779.82
2022-08-22T07:14:12.471Z,98783.79
2022-08-22T07:15:39.141Z,98783.05
2022-08-22T07:17:04.844Z,98783.58
2022-08-22T07:18:27.379Z,98779.60
2022-08-22T07:19:42.766Z,98779.16
2022-08-22T07:20:58.337Z,98779.36
2022-08-22T07:22:23.021Z,98778.10
2022-08-22T07:23:37.452Z,98777.02
2022-08-22T07:24:48.633Z,98778.56
2022-08-22T07:26:16.850Z,98778.89
2022-08-22T07:27:49.487Z,98778.11
2022-08-22T07:29:41.564Z,98781.83
2022-08-22T07:30:53.053Z,98780.57
2022-08-22T07:32:23.276Z,98778.59
2022-08-22T07:33:53.327Z,98774.20
2022-08-22T07:35:32.628Z,98771.81
2022-08-22T07:36:47.873Z,98767.54
2022-08-22T07:38:01.079Z,98764.14
2022-08-22T07:39:44.894Z,98765.91
2022-08-22T07:40:59.039Z,98766.72
2022-08-22T07:42:20.385Z,98764.77
2022-08-22T07:43:55.774Z,98765.17
2022-08-22T07:45:15.503Z,98762.63
2022-08-22T07:46:50.117Z,98761.64
2022-08-22T07:48:25.023Z,98758.98
2022-08-22T07:49:58.686Z,98753.89
2022-08-22T07:51:08.935Z,98749.92
2022-08-22T07:52:16.670Z,98743.89
2022-08-22T07:53:44.348Z,98740.80
2022-08-22T07:55:05.072Z,98741.11
2022-08-22T07:56:27.916Z,98741.56
2022-08-22T07:57:41.313Z,98746.13
2022-08-22T07:58:50.208Z,98745.73
2022-08-22T08:00:00.338Z,98742.95
2022-08-22T08:01:12.029Z,98745.02
2022-08-22T08:02:20.542Z,98746.02
2022-08-22T08:03:29.761Z,98746.27
2022-08-22T08:04:40.382Z,98745.85
2022-08-22T08:05:48.860Z,98743.14
2022-08-22T08:06:58.084Z,98744.77
2022-08-22T08:08:33.183Z,98743.21
2022-08-22T08:09:45.852Z,98745.95
2022-08-22T08:10:53.093Z,98745.53
2022-08-22T08:12:00.595Z,98743.87
2022-08-22T08:13:11.494Z,98745.61
2022-08-22T08:14:18.853Z,98746.12
2022-08-22T08:15:26.357Z,98747.27
2022-08-22T08:16:50.091Z,98750.04
2022-08-22T08:18:03.080Z,98749.30
2022-08-22T08:19:12.118Z,98748.41
2022-08-22T08:20:22.739Z,98750.02
2022-08-22T08:21:40.031Z,98750.91
2022-08-22T08:22:49.332Z,98748.83
2022-08-22T08:23:57.877Z,98748.02
2022-08-22T08:25:05.104Z,98746.96
2022-08-22T08:26:22.268Z,98746.52
2022-08-22T08:27:51.258Z,98747.08
2022-08-22T08:28:59.928Z,98745.48
2022-08-22T08:30:51.288Z,98745.44
2022-08-22T08:31:58.521Z,98743.67
2022-08-22T08:33:25.334Z,98746.38
2022-08-22T08:34:35.449Z,98745.48
2022-08-22T08:36:03.031Z,98747.46
2022-08-22T08:37:19.644Z,98749.18
2022-08-22T08:38:29.340Z,98745.91
2022-08-22T08:39:41.447Z,98741.98
2022-08-22T08:41:25.684Z,98742.77
2022-08-22T08:43:18.829Z,98739.09
2022-08-22T08:45:02.745Z,98738.95
2022-08-22T08:46:26.844Z,98737.54
2022-08-22T08:47:47.998Z,98736.53
2022-08-22T08:49:01.971Z,98737.54
2022-08-22T08:50:36.202Z,98739.23
2022-08-22T08:51:59.328Z,98737.67
2022-08-22T08:53:25.620Z,98738.14
2022-08-22T08:54:53.208Z,98741.89
2022-08-22T08:56:25.586Z,98741.79
2022-08-22T08:57:51.794Z,98743.19
2022-08-22T08:59:23.984Z,98745.02
2022-08-22T09:01:12.960Z,98746.34
2022-08-22T09:02:42.475Z,98754.71
2022-08-22T09:04:19.327Z,98755.48
2022-08-22T09:05:56.417Z,98756.76
2022-08-22T09:07:26.839Z,98759.05
2022-08-22T09:08:50.679Z,98758.11
2022-08-22T09:10:27.342Z,98756.45
2022-08-22T09:12:13.702Z,98757.01
2022-08-22T09:13:40.981Z,98759.58
2022-08-22T09:15:14.124Z,98756.53
2022-08-22T09:16:49.060Z,98757.15
2022-08-22T09:18:20.312Z,98758.31
2022-08-22T09:19:30.785Z,98756.25
2022-08-22T09:21:00.403Z,98757.46
2022-08-22T09:22:22.983Z,98755.31
2022-08-22T09:23:40.624Z,98756.48
2022-08-22T09:25:18.463Z,98753.00
2022-08-22T09:26:57.207Z,98750.02
2022-08-22T09:28:23.326Z,98747.03
2022-08-22T09:29:51.450Z,98750.67
2022-08-22T09:31:17.024Z,98753.89
2022-08-22T09:32:59.746Z,98756.86
2022-08-22T09:34:26.843Z,98758.09
2022-08-22T09:35:53.704Z,98758.86
2022-08-22T09:37:05.950Z,98758.33
2022-08-22T09:38:40.907Z,98760.04
2022-08-22T09:39:57.387Z,98759.60
2022-08-22T09:41:25.517Z,98758.39
2022-08-22T09:43:01.300Z,98755.67
2022-08-22T09:44:33.517Z,98749.77
2022-08-22T09:46:01.878Z,98746.96
2022-08-22T09:47:31.333Z,98747.59
2022-08-22T09:48:52.553Z,98748.58
2022-08-22T09:50:06.426Z,98747.52
2022-08-22T09:51:32.437Z,98748.25
2022-08-22T09:53:13.004Z,98743.48
2022-08-22T09:54:32.706Z,98740.35
2022-08-22T09:56:15.010Z,98737.67
2022-08-22T09:57:41.299Z,98737.98
2022-08-22T09:59:13.540Z,98741.46
2022-08-22T10:00:24.720Z,98748.65
2022-08-22T10:01:56.124Z,98754.75
2022-08-22T10:03:38.931Z,98763.99
2022-08-22T10:04:58.301Z,98774.39
2022-08-22T10:06:09.671Z,98778.83
2022-08-22T10:07:40.492Z,98788.95
2022-08-22T10:09:35.907Z,98791.58
2022-08-22T10:11:21.421Z,98800.66
2022-08-22T10:12:53.178Z,98807.94
2022-08-22T10:14:22.312Z,98810.73
2022-08-22T10:15:43.998Z,98808.95
2022-08-22T10:17:03.052Z,98801.23
2022-08-22T10:18:35.266Z,98796.46
2022-08-22T10:19:48.864Z,98786.45
2022-08-22T10:21:10.955Z,98785.74
2022-08-22T10:22:30.379Z,98784.63
2022-08-22T10:23:55.124Z,98787.60
2022-08-22T10:25:02.604Z,98785.48
2022-08-22T10:26:46.200Z,98786.94
2022-08-22T10:28:53.010Z,98785.89
2022-08-22T10:30:09.469Z,98797.23
2022-08-22T10:31:26.113Z,98795.69
2022-08-22T10:32:42.922Z,98794.50
2022-08-22T10:34:10.460Z,98791.79
2022-08-22T10:35:25.573Z,98789.05
2022-08-22T10:37:10.268Z,98790.21
2022-08-22T10:38:55.673Z,98784.07
2022-08-22T10:40:20.908Z,98781.73
2022-08-22T10:41:32.761Z,98780.16
2022-08-22T10:42:55.872Z,98781.28
2022-08-22T10:44:21.101Z,98784.04
2022-08-22T10:45:40.062Z,98786.46
2022-08-22T10:47:08.360Z,98787.08
2022-08-22T10:48:34.137Z,98793.09
2022-08-22T10:50:33.765Z,98793.05
2022-08-22T10:51:49.157Z,98792.94
2022-08-22T10:53:24.668Z,98785.92
2022-08-22T10:54:40.267Z,98786.18
2022-08-22T10:55:47.857Z,98782.46
2022-08-22T10:57:20.679Z,98780.63
2022-08-22T10:58:31.707Z,98784.60
2022-08-22T11:00:17.698Z,98789.33
2022-08-22T11:01:37.515Z,98788.20
2022-08-22T11:03:35.667Z,98788.80
2022-08-22T11:05:18.726Z,98787.06
2022-08-22T11:06:38.799Z,98785.04
2022-08-22T11:08:16.557Z,98788.52
2022-08-22T11:09:41.661Z,98786.77
2022-08-22T11:11:12.020Z,98792.02
2022-08-22T11:12:42.124Z,98791.17
2022-08-22T11:14:32.779Z,98785.44
2022-08-22T11:16:16.325Z,98777.85
2022-08-22T11:17:59.998Z,98764.92
2022-08-22T11:19:27.175Z,98758.11
2022-08-22T11:20:50.338Z,98755.20
2022-08-22T11:22:36.287Z,98756.40
2022-08-22T11:24:08.964Z,98763.08
2022-08-22T11:26:15.075Z,98765.24
2022-08-22T11:28:19.691Z,98754.66
2022-08-22T11:29:53.205Z,98746.42
2022-08-22T11:31:31.643Z,98735.94
2022-08-22T11:33:09.722Z,98740.73
2022-08-22T11:34:26.207Z,98743.52
2022-08-22T11:36:09.991Z,98746.59
2022-08-22T11:37:43.343Z,98744.70
2022-08-22T11:39:25.028Z,98739.16
2022-08-22T11:40:49.596Z,98733.84
2022-08-22T11:42:04.727Z,98731.70
2022-08-22T11:43:32.588Z,98729.92
2022-08-22T11:44:56.765Z,98732.73
2022-08-22T11:46:35.846Z,98735.80
2022-08-22T11:47:55.069Z,98738.38
2022-08-22T11:49:25.628Z,98740.16
2022-08-22T11:51:24.852Z,98737.91
2022-08-22T11:52:54.451Z,98732.45
2022-08-22T11:54:31.080Z,98726.16
2022-08-22T11:56:10.401Z,98729.91
2022-08-22T11:57:37.820Z,98729.88
2022-08-22T11:59:17.606Z,98733.27
2022-08-22T12:01:03.801Z,98736.26
2022-08-22T12:03:03.214Z,98740.13
2022-08-22T12:04:13.753Z,98742.19
2022-08-22T12:05:26.394Z,98743.50
2022-08-22T12:06:47.496Z,98746.11
2022-08-22T12:08:26.428Z,98744.94
2022-08-22T12:09:53.887Z,98750.52
2022-08-22T12:11:08.367Z,98751.09
2022-08-22T12:12:23.377Z,98747.73
2022-08-22T12:14:04.033Z,98749.36
2022-08-22T12:15:20.141Z,98748.63
2022-08-22T12:17:07.130Z,98748.19
2022-08-22T12:18:53.494Z,98749.40
2022-08-22T12:20:35.476Z,98752.38
2022-08-22T12:22:19.667Z,98756.94
2022-08-22T12:23:49.773Z,98756.52
2022-08-22T12:25:22.533Z,98754.48
2022-08-22T12:27:08.050Z,98749.84
2022-08-22T12:28:57.404Z,98750.07
2022-08-22T12:30:32.279Z,98746.27
2022-08-22T12:32:02.970Z,98747.31
2022-08-22T12:33:24.673Z,98748.95
2022-08-22T12:34:53.021Z,98750.50
2022-08-22T12:36:18.719Z,98749.73
2022-08-22T12:37:53.153Z,98755.09
2022-08-22T12:39:54.242Z,98758.80
2022-08-22T12:41:28.181Z,98762.73
2022-08-22T12:43:04.065Z,98764.55
2022-08-22T12:44:45.535Z,98767.28
2022-08-22T12:46:30.711Z,98765.25
2022-08-22T12:48:02.538Z,98766.30
2022-08-22T12:49:38.530Z,98770.03
2022-08-22T12:50:50.259Z,98769.77
2022-08-22T12:52:26.625Z,98767.92
2022-08-22T12:53:57.655Z,98770.92
2022-08-22T12:55:25.281Z,98777.98
2022-08-22T12:56:47.391Z,98780.88
2022-08-22T12:58:42.856Z,98782.05
2022-08-22T12:59:54.498Z,98786.14
2022-08-22T13:01:08.290Z,98785.79
2022-08-22T13:02:19.836Z,98787.40
2022-08-22T13:03:38.376Z,98785.63
2022-08-22T13:04:58.893Z,98782.58
2022-08-22T13:06:13.755Z,98779.17
2022-08-22T13:07:29.109Z,98778.41
2022-08-22T13:08:40.195Z,98779.75
2022-08-22T13:10:03.728Z,98782.86
2022-08-22T13:11:23.116Z,98781.90
2022-08-22T13:12:47.150Z,98780.82
2022-08-22T13:13:59.329Z,98784.39
2022-08-22T13:15:36.054Z,98783.94
2022-08-22T13:16:49.018Z,98783.73
2022-08-22T13:18:18.841Z,98781.63
2022-08-22T13:19:33.566Z,98782.16
2022-08-22T13:20:43.759Z,98784.96
2022-08-22T13:22:04.950Z,98787.68
2022-08-22T13:23:20.657Z,98787.67
2022-08-22T13:24:51.833Z,98785.09
2022-08-22T13:26:33.060Z,98783.97
2022-08-22T13:28:02.184Z,98782.04
2022-08-22T13:29:26.895Z,98785.73
2022-08-22T13:30:40.604Z,98787.17
2022-08-22T13:31:48.758Z,98787.31
2022-08-22T13:33:40.856Z,98786.71
2022-08-22T13:34:53.864Z,98785.75
2022-08-22T13:36:10.834Z,98786.81
2022-08-22T13:37:24.523Z,98786.34
2022-08-22T13:38:53.548Z,98786.15
2022-08-22T13:40:05.965Z,98787.35
2022-08-22T13:41:15.501Z,98792.27
2022-08-22T13:42:30.105Z,98792.79
2022-08-22T13:43:58.274Z,98792.56
2022-08-22T13:45:14.714Z,98790.45
2022-08-22T13:46:31.368Z,98791.58
2022-08-22T13:47:54.301Z,98795.41
2022-08-22T13:49:04.954Z,98794.94
2022-08-22T13:50:21.004Z,98798.63
2022-08-22T13:51:31.493Z,98795.64
2022-08-22T13:52:45.830Z,98800.11
2022-08-22T13:54:51.107Z,98799.33
2022-08-22T13:56:06.578Z,98801.02
2022-08-22T13:57:51.956Z,98797.29
2022-08-22T13:59:01.868Z,98797.34
2022-08-22T14:00:36.577Z,98800.20
2022-08-22T14:02:01.828Z,98805.81
2022-08-22T14:03:23.308Z,98805.51
2022-08-22T14:04:37.684Z,98803.36
2022-08-22T14:05:53.302Z,98803.95
2022-08-22T14:07:06.624Z,98802.21
2022-08-22T14:08:36.708Z,98800.09
2022-08-22T14:10:02.931Z,98798.55
2022-08-22T14:11:33.836Z,98799.77
2022-08-22T14:12:51.285Z,98800.02
2022-08-22T14:14:01.777Z,98805.77
2022-08-22T14:15:10.364Z,98807.04
2022-08-22T14:16:36.777Z,98807.90
2022-08-22T14:17:48.380Z,98810.48
2022-08-22T14:19:08.294Z,98813.64
2022-08-22T14:20:32.003Z,98812.70
2022-08-22T14:22:07.320Z,98809.23
2022-08-22T14:23:31.175Z,98808.23
2022-08-22T14:24:57.471Z,98807.48
2022-08-22T14:26:07.706Z,98802.30
2022-08-22T14:27:54.562Z,98800.29
2022-08-22T14:29:05.800Z,98797.13
2022-08-22T14:30:24.423Z,98799.54
2022-08-22T14:31:33.580Z,98802.52
2022-08-22T14:32:50.027Z,98804.46
2022-08-22T14:34:01.452Z,98806.84
2022-08-22T14:35:35.276Z,98811.23
2022-08-22T14:37:17.022Z,98812.00
2022-08-22T14:38:46.310Z,98808.60
2022-08-22T14:40:03.842Z,98806.66
2022-08-22T14:41:24.795Z,98804.36
2022-08-22T14:42:51.230Z,98801.24
2022-08-22T14:44:11.610Z,98801.80
2022-08-22T14:45:48.034Z,98800.89
2022-08-22T14:47:03.712Z,98806.64
2022-08-22T14:48:32.600Z,98808.96
2022-08-22T14:49:57.349Z,98807.21
2022-08-22T14:51:11.542Z,98807.14
2022-08-22T14:52:45.902Z,98808.08
2022-08-22T14:53:54.338Z,98807.67
2022-08-22T14:55:31.867Z,98811.64
2022-08-22T14:56:41.128Z,98813.13
2022-08-22T14:57:54.615Z,98815.64
2022-08-22T14:59:06.878Z,98818.04
2022-08-22T15:00:16.087Z,98817.95
2022-08-22T15:01:29.801Z,98815.75
2022-08-22T15:02:41.438Z,98816.09
2022-08-22T15:04:21.870Z,98816.30
2022-08-22T15:05:31.571Z,98818.52
2022-08-22T15:06:58.269Z,98823.08
2022-08-22T15:08:07.534Z,98823.66
2022-08-22T15:09:40.565Z,98823.84
2022-08-22T15:11:07.327Z,98826.46
2022-08-22T15:12:36.298Z,98827.20
2022-08-22T15:14:14.578Z,98829.09
2022-08-22T15:15:54.303Z,98826.63
2022-08-22T15:17:07.909Z,98824.37
2022-08-22T15:18:35.316Z,98822.99
2022-08-22T15:19:52.177Z,98825.36
2022-08-22T15:21:14.236Z,98827.77
2022-08-22T15:22:29.425Z,98827.43
2022-08-22T15:23:45.446Z,98825.81
2022-08-22T15:25:03.241Z,98821.42
2022-08-22T15:26:13.208Z,98819.50
2022-08-22T15:27:22.877Z,98819.49
2022-08-22T15:28:49.719Z,98817.50
2022-08-22T15:30:18.764Z,98818.03
2022-08-22T15:31:31.719Z,98820.71
2022-08-22T15:32:41.750Z,98823.61
2022-08-22T15:33:49.832Z,98818.96
2022-08-22T15:35:41.709Z,98822.76
2022-08-22T15:37:32.633Z,98824.04
2022-08-22T15:38:47.953Z,98820.96
2022-08-22T15:40:14.730Z,98819.80
2022-08-22T15:41:36.061Z,98818.88
2022-08-22T15:42:52.300Z,98819.02
2022-08-22T15:44:32.371Z,98814.30
2022-08-22T15:45:41.777Z,98812.07
2022-08-22T15:47:02.672Z,98814.14
2022-08-22T15:48:14.875Z,98815.61
2022-08-22T15:49:22.893Z,98816.02
2022-08-22T15:51:09.426Z,98816.73
2022-08-22T15:52:34.014Z,98820.56
2022-08-22T15:53:49.543Z,98819.27
2022-08-22T15:55:20.180Z,98818.73
2022-08-22T15:56:29.752Z,98821.39
2022-08-22T15:57:40.896Z,98819.98
2022-08-22T15:58:52.096Z,98826.20
2022-08-22T16:00:13.644Z,98828.94
2022-08-22T16:01:26.602Z,98823.11
2022-08-22T16:02:39.898Z,98826.48
2022-08-22T16:04:07.967Z,98827.29
2022-08-22T16:05:25.706Z,98828.13
2022-08-22T16:06:50.500Z,98825.33
2022-08-22T16:08:07.599Z,98823.09
2022-08-22T16:09:39.502Z,98821.98
2022-08-22T16:10:56.287Z,98820.11
2022-08-22T16:12:08.396Z,98820.11
2022-08-22T16:13:39.398Z,98819.83
2022-08-22T16:14:51.995Z,98820.95
2022-08-22T16:16:11.064Z,98819.55
2022-08-22T16:17:34.641Z,98820.16
2022-08-22T16:18:45.684Z,98820.65
2022-08-22T16:20:19.429Z,98819.92
2022-08-22T16:21:29.620Z,98818.91
2022-08-22T16:23:02.294Z,98819.90
2022-08-22T16:24:15.996Z,98818.35
2022-08-22T16:25:50.798Z,98815.34
2022-08-22T16:26:58.147Z,98816.91
2022-08-22T16:28:08.147Z,98817.25
2022-08-22T16:29:30.299Z,98821.56
2022-08-22T16:30:45.460Z,98823.02
2022-08-22T16:31:55.641Z,98820.98
2022-08-22T16:33:03.923Z,98819.98
2022-08-22T16:34:40.169Z,98816.99
2022-08-22T16:36:19.895Z,98812.33